KACY

Atlantic City International Airport

Atlantic City, New Jersey, USA
KACY 210520Z 2106/2206 35006KT P6SM SKC FM211300 32010KT P6SM SKC FM211700 28010KT P6SM SCT220 FM220000 VRB05KT P6SM SCT220
Issued Valid From Valid To
Apr-21 @ 05:20 UTC
(4 hours ago)
Apr-21 @ 06:00 UTC
(4 hours ago)
Apr-22 @ 06:00 UTC
(in 20 hours)
Apr-21 @ 06:00 to Apr-21 @ 13:00
KACY 210520Z 2106/2206 35006KT P6SM SKC
Wind Visibility Clouds
350° at 6 knots Greater than 6 miles
  • Clear skies
From Apr-21 @ 13:00 to Apr-21 @ 17:00
FM211300 32010KT P6SM SKC
Wind Visibility Clouds
320° at 10 knots Greater than 6 miles
  • Clear skies
From Apr-21 @ 17:00 to Apr-22 @ 00:00
FM211700 28010KT P6SM SCT220
Wind Visibility Clouds
280° at 10 knots Greater than 6 miles
  • Scattered at 22,000' AGL
From Apr-22 @ 00:00 to Apr-22 @ 06:00
FM220000 VRB05KT P6SM SCT220
Wind Visibility Clouds
Variable at 5 knots Greater than 6 miles
  • Scattered at 22,000' AGL
KACY 210520Z 2106/2206 35006KT P6SM SKC FM211300 32010KT P6SM SKC FM211700 28010KT P6SM SCT220 FM220000 VRB05KT P6SM SCT220
Issued Apr-21 @ 05:20 UTC
(4 hours ago)
Valid From Apr-21 @ 06:00 UTC
(4 hours ago)
Valid To Apr-22 @ 06:00 UTC
(in 20 hours)
Apr-21 @ 06:00 - Apr-21 @ 13:00
Wind Visibility
350° at 6 knots Greater than 6 miles
Clouds
  • Clear skies
From Apr-21 @ 13:00 - Apr-21 @ 17:00
Wind Visibility
320° at 10 knots Greater than 6 miles
Clouds
  • Clear skies
From Apr-21 @ 17:00 - Apr-22 @ 00:00
Wind Visibility
280° at 10 knots Greater than 6 miles
Clouds
  • Scattered at 22,000' AGL
From Apr-22 @ 00:00 - Apr-22 @ 06:00
Wind Visibility
Variable at 5 knots Greater than 6 miles
Clouds
  • Scattered at 22,000' AGL